Time;durP1;ratioP1;P1;durP2;ratioP2;P2;SDS_P1;SDS_P2;PMS_P1;PMS_P2;Temp;Humidity;BMP_temperature;BMP_pressure;BME280_temperature;BME280_humidity;BME280_pressure;Samples;Min_cycle;Max_cycle;Signal;HPM_P1;HPM_P2
2022/01/30 00:01:11;;;;;;;;;6.50;6.50;;;;;;;;5096686;27;45398;-73
2022/01/30 00:03:36;;;;;;;;;10.50;9.50;;;;;;;;5118863;27;45301;-73
2022/01/30 00:06:01;;;;;;;;;7.75;5.50;;;;;;;;5119511;27;47181;-73
2022/01/30 00:08:26;;;;;;;;;7.25;7.25;;;;;;;;5121361;27;45457;-71
2022/01/30 00:11:01;;;;;;;;;9.00;4.50;;;;;;;;5117371;27;45514;-72
2022/01/30 00:13:28;;;;;;;;;6.00;6.00;;;;;;;;5104763;27;45480;-71
2022/01/30 00:15:54;;;;;;;;;6.75;5.50;;;;;;;;5128029;27;46345;-71
2022/01/30 00:21:17;;;;;;;;;6.75;5.50;;;;;;;;5118956;27;45223;-73
2022/01/30 00:24:33;;;;;;;;;7.00;6.00;;;;;;;;5099889;27;45214;-72
2022/01/30 00:26:33;;;;;;;;;4.50;4.25;;;;;;;;5113508;27;45579;-73
2022/01/30 00:28:59;;;;;;;;;6.50;6.50;;;;;;;;5122557;27;45344;-72
2022/01/30 00:31:25;;;;;;;;;5.25;5.25;;;;;;;;5115368;27;45368;-72
2022/01/30 00:33:51;;;;;;;;;8.25;7.75;;;;;;;;5115421;27;45937;-72
2022/01/30 00:36:16;;;;;;;;;5.75;5.75;;;;;;;;5115085;27;46182;-74
2022/01/30 00:38:42;;;;;;;;;6.75;6.75;;;;;;;;5115927;27;45402;-72
2022/01/30 00:41:07;;;;;;;;;7.50;6.75;;;;;;;;5115132;27;45318;-73
2022/01/30 00:43:32;;;;;;;;;8.25;8.00;;;;;;;;5115698;27;45301;-71
2022/01/30 00:45:58;;;;;;;;;9.00;7.00;;;;;;;;5116422;27;46026;-72
2022/01/30 00:48:23;;;;;;;;;9.00;7.75;;;;;;;;5099598;27;45488;-71
2022/01/30 00:50:48;;;;;;;;;5.00;5.00;;;;;;;;5095076;27;45534;-71
2022/01/30 00:53:15;;;;;;;;;6.00;6.00;;;;;;;;5094450;27;45446;-70
2022/01/30 00:55:40;;;;;;;;;5.75;5.75;;;;;;;;5093638;27;47153;-73
2022/01/30 00:58:05;;;;;;;;;9.50;9.00;;;;;;;;5094068;27;45406;-73
2022/01/30 01:00:30;;;;;;;;;7.50;6.25;;;;;;;;5076356;27;45315;-73
2022/01/30 01:02:56;;;;;;;;;8.75;7.00;;;;;;;;5094739;27;45545;-74
2022/01/30 01:05:23;;;;;;;;;6.25;5.00;;;;;;;;5094159;27;47611;-73
2022/01/30 01:07:50;;;;;;;;;10.50;9.50;;;;;;;;5094265;27;45438;-71
2022/01/30 01:23:37;;;;;;;;;5.50;4.00;;;;;;;;4994675;28;45652;-73
2022/01/30 01:26:02;;;;;;;;;8.75;8.75;;;;;;;;4994430;28;47319;-73
2022/01/30 01:28:28;;;;;;;;;5.00;5.00;;;;;;;;4978167;28;45542;-72
2022/01/30 01:30:54;;;;;;;;;6.25;4.75;;;;;;;;4995470;28;45369;-73
2022/01/30 01:33:20;;;;;;;;;6.50;5.50;;;;;;;;4995070;28;45449;-73
2022/01/30 01:35:45;;;;;;;;;7.00;7.00;;;;;;;;4994849;28;46024;-72
2022/01/30 01:38:13;;;;;;;;;6.75;6.75;;;;;;;;4994040;28;45471;-73
2022/01/30 01:40:39;;;;;;;;;8.00;8.00;;;;;;;;4994782;28;45385;-73
2022/01/30 01:43:04;;;;;;;;;6.75;6.50;;;;;;;;4994717;28;45685;-73
2022/01/30 01:45:35;;;;;;;;;9.25;8.25;;;;;;;;4994246;28;47276;-73
2022/01/30 01:48:04;;;;;;;;;3.50;3.50;;;;;;;;5006645;28;45468;-73
2022/01/30 01:50:40;;;;;;;;;7.00;7.00;;;;;;;;5014818;28;45519;-73
2022/01/30 01:53:09;;;;;;;;;8.50;8.50;;;;;;;;5013705;28;45466;-73
2022/01/30 01:55:35;;;;;;;;;9.00;7.00;;;;;;;;5089475;27;45680;-72
2022/01/30 01:58:00;;;;;;;;;7.50;7.00;;;;;;;;5118000;27;45236;-72
2022/01/30 02:00:25;;;;;;;;;7.75;7.75;;;;;;;;5117751;27;45228;-73
2022/01/30 02:02:53;;;;;;;;;11.50;9.00;;;;;;;;5118111;27;45529;-73
2022/01/30 02:05:18;;;;;;;;;14.25;12.50;;;;;;;;5117285;27;47563;-72
2022/01/30 02:10:12;;;;;;;;;13.75;12.00;;;;;;;;5117422;27;45386;-73
2022/01/30 02:12:47;;;;;;;;;13.25;9.75;;;;;;;;5117253;27;45316;-73
2022/01/30 02:28:07;;;;;;;;;8.00;7.00;;;;;;;;5116836;27;45435;-72
2022/01/30 02:30:35;;;;;;;;;12.25;10.00;;;;;;;;5100896;27;45386;-72
2022/01/30 02:33:01;;;;;;;;;11.25;9.25;;;;;;;;5117828;27;45302;-73
2022/01/30 02:35:26;;;;;;;;;8.00;8.00;;;;;;;;5116700;27;46303;-73
2022/01/30 02:37:53;;;;;;;;;10.75;10.00;;;;;;;;5115466;27;45228;-72
2022/01/30 02:40:19;;;;;;;;;10.75;8.50;;;;;;;;5118929;27;45346;-72
2022/01/30 02:42:49;;;;;;;;;10.25;10.25;;;;;;;;5117122;27;45356;-72
2022/01/30 02:45:16;;;;;;;;;14.00;10.00;;;;;;;;5116625;27;46987;-72
2022/01/30 02:47:54;;;;;;;;;11.25;9.00;;;;;;;;5116832;27;45404;-72
2022/01/30 02:50:32;;;;;;;;;10.75;9.75;;;;;;;;5116468;27;45375;-72
2022/01/30 02:52:58;;;;;;;;;13.50;12.00;;;;;;;;5116562;27;45492;-72
2022/01/30 02:55:23;;;;;;;;;13.25;12.25;;;;;;;;5116217;27;46848;-72
2022/01/30 02:57:48;;;;;;;;;12.25;11.25;;;;;;;;5116454;27;45416;-72
2022/01/30 03:00:14;;;;;;;;;11.25;9.25;;;;;;;;5116910;27;45361;-72
2022/01/30 03:02:39;;;;;;;;;10.75;9.50;;;;;;;;5117090;27;45340;-72
2022/01/30 03:05:04;;;;;;;;;15.00;12.75;;;;;;;;5116000;27;46086;-71
2022/01/30 03:07:30;;;;;;;;;12.75;10.25;;;;;;;;5115964;27;45238;-72
2022/01/30 03:09:55;;;;;;;;;12.75;12.25;;;;;;;;5116564;27;45450;-72
2022/01/30 03:12:20;;;;;;;;;14.00;11.75;;;;;;;;5116602;27;45193;-72
2022/01/30 03:14:45;;;;;;;;;10.00;10.00;;;;;;;;5116751;27;46415;-72
2022/01/30 03:17:10;;;;;;;;;15.75;13.50;;;;;;;;5116182;27;45313;-72
2022/01/30 03:19:36;;;;;;;;;13.75;12.25;;;;;;;;5116289;27;45356;-73
2022/01/30 03:22:01;;;;;;;;;13.50;12.25;;;;;;;;5116869;27;45188;-72
2022/01/30 03:24:33;;;;;;;;;15.00;11.00;;;;;;;;5116357;27;46094;-72
2022/01/30 03:26:58;;;;;;;;;16.25;11.25;;;;;;;;5112801;27;45600;-72
2022/01/30 03:29:23;;;;;;;;;14.50;12.75;;;;;;;;5116202;27;45371;-72
2022/01/30 03:31:49;;;;;;;;;14.50;11.00;;;;;;;;5116047;27;45449;-72
2022/01/30 03:34:14;;;;;;;;;12.25;11.00;;;;;;;;5115404;27;46167;-72
2022/01/30 03:36:39;;;;;;;;;16.25;13.00;;;;;;;;5116166;27;45413;-73
2022/01/30 03:39:04;;;;;;;;;14.75;11.50;;;;;;;;5116240;27;45355;-72
2022/01/30 03:41:30;;;;;;;;;12.00;11.00;;;;;;;;5115530;27;45268;-73
2022/01/30 03:43:55;;;;;;;;;11.25;10.75;;;;;;;;5115827;27;45326;-73
2022/01/30 03:46:21;;;;;;;;;11.25;9.00;;;;;;;;5115876;27;45472;-73
2022/01/30 03:48:47;;;;;;;;;8.50;7.50;;;;;;;;5115506;27;45439;-72
2022/01/30 03:51:12;;;;;;;;;8.25;8.00;;;;;;;;5116224;27;45371;-73
2022/01/30 03:53:37;;;;;;;;;6.25;5.25;;;;;;;;5116192;27;47088;-72
2022/01/30 03:56:03;;;;;;;;;4.00;4.00;;;;;;;;5115899;27;45334;-72
2022/01/30 03:58:29;;;;;;;;;4.00;4.00;;;;;;;;5115696;27;45497;-72
2022/01/30 04:00:54;;;;;;;;;4.75;3.00;;;;;;;;5116126;27;45539;-72
2022/01/30 04:03:19;;;;;;;;;2.00;2.00;;;;;;;;5115620;27;45338;-72
2022/01/30 04:05:44;;;;;;;;;5.75;4.50;;;;;;;;5115949;27;45371;-72
2022/01/30 04:08:10;;;;;;;;;7.75;3.25;;;;;;;;5115405;27;45490;-72
2022/01/30 04:10:35;;;;;;;;;3.75;2.50;;;;;;;;5115586;27;45345;-72
2022/01/30 04:13:01;;;;;;;;;4.00;4.00;;;;;;;;5115238;27;45456;-72
2022/01/30 04:15:26;;;;;;;;;4.00;4.00;;;;;;;;5115306;27;45279;-72
2022/01/30 04:17:52;;;;;;;;;2.50;2.25;;;;;;;;5097166;27;45368;-72
2022/01/30 04:20:17;;;;;;;;;5.50;3.00;;;;;;;;5115432;27;45505;-72
2022/01/30 04:22:42;;;;;;;;;5.25;3.00;;;;;;;;5093319;27;47608;-72
2022/01/30 04:25:08;;;;;;;;;6.25;4.75;;;;;;;;5115348;27;45481;-72
2022/01/30 04:27:33;;;;;;;;;7.75;4.00;;;;;;;;5115621;27;45326;-72
2022/01/30 04:29:58;;;;;;;;;2.00;2.00;;;;;;;;5098181;27;45280;-72
2022/01/30 04:32:26;;;;;;;;;6.00;2.75;;;;;;;;5096547;27;47021;-72
2022/01/30 04:34:56;;;;;;;;;4.25;3.00;;;;;;;;5115449;27;45374;-72
2022/01/30 04:37:30;;;;;;;;;2.25;1.00;;;;;;;;5115274;27;45495;-72
2022/01/30 05:01:24;;;;;;;;;5.50;3.75;;;;;;;;5120838;27;45288;-72
2022/01/30 05:06:17;;;;;;;;;5.50;3.00;;;;;;;;5119265;27;45572;-74
2022/01/30 05:08:43;;;;;;;;;5.50;3.50;;;;;;;;5118018;27;45474;-73
2022/01/30 05:11:09;;;;;;;;;5.75;4.75;;;;;;;;5118764;27;45470;-72
2022/01/30 05:13:38;;;;;;;;;5.00;5.00;;;;;;;;5119674;27;46198;-72
2022/01/30 05:16:04;;;;;;;;;5.00;3.00;;;;;;;;5119024;27;45549;-72
2022/01/30 05:18:30;;;;;;;;;4.00;3.75;;;;;;;;5119589;27;45283;-72
2022/01/30 05:20:55;;;;;;;;;4.50;3.50;;;;;;;;5119265;27;45308;-72
2022/01/30 05:23:20;;;;;;;;;3.00;2.00;;;;;;;;5118346;27;47281;-72
2022/01/30 05:25:47;;;;;;;;;3.50;3.50;;;;;;;;5118279;27;45409;-72
2022/01/30 05:28:12;;;;;;;;;4.25;3.00;;;;;;;;5118253;27;45715;-72
2022/01/30 05:30:38;;;;;;;;;5.00;3.75;;;;;;;;5118078;27;45354;-72
2022/01/30 05:33:03;;;;;;;;;4.50;2.75;;;;;;;;5118566;27;47340;-72
2022/01/30 05:35:29;;;;;;;;;3.75;3.00;;;;;;;;5117644;27;45487;-72
2022/01/30 05:37:57;;;;;;;;;6.00;4.75;;;;;;;;5118400;27;45463;-72
2022/01/30 05:40:23;;;;;;;;;7.75;4.00;;;;;;;;5118514;27;45438;-71
2022/01/30 05:42:48;;;;;;;;;2.50;2.50;;;;;;;;5117883;27;46299;-73
2022/01/30 05:45:19;;;;;;;;;3.50;3.00;;;;;;;;5103265;27;46221;-73
2022/01/30 05:48:06;;;;;;;;;6.00;3.00;;;;;;;;5107852;27;45487;-76
2022/01/30 05:50:32;;;;;;;;;7.50;3.75;;;;;;;;5097380;27;45475;-73
2022/01/30 05:52:57;;;;;;;;;7.50;3.00;;;;;;;;5096838;27;45876;-73
2022/01/30 05:55:22;;;;;;;;;4.00;3.00;;;;;;;;5097071;27;45666;-75
2022/01/30 05:57:48;;;;;;;;;5.50;3.75;;;;;;;;5097289;27;45318;-74
2022/01/30 06:00:14;;;;;;;;;5.50;1.75;;;;;;;;5109786;27;45413;-73
2022/01/30 06:02:44;;;;;;;;;5.00;3.75;;;;;;;;5097541;27;46139;-73
2022/01/30 06:05:09;;;;;;;;;5.00;3.00;;;;;;;;5095723;27;45348;-73
2022/01/30 06:07:37;;;;;;;;;2.00;2.00;;;;;;;;5096504;27;45411;-72
2022/01/30 06:10:03;;;;;;;;;4.00;4.00;;;;;;;;5096985;27;45522;-73
2022/01/30 06:12:28;;;;;;;;;5.25;3.00;;;;;;;;5097060;27;46265;-71
2022/01/30 06:14:53;;;;;;;;;6.50;4.75;;;;;;;;5096264;27;45342;-71
2022/01/30 06:17:18;;;;;;;;;8.25;6.25;;;;;;;;5096183;27;45351;-71
2022/01/30 06:19:43;;;;;;;;;6.25;3.25;;;;;;;;5096560;27;45609;-70
2022/01/30 06:22:09;;;;;;;;;6.75;2.50;;;;;;;;5096587;27;45548;-71
2022/01/30 06:24:34;;;;;;;;;3.00;3.00;;;;;;;;5096514;27;45392;-71
2022/01/30 06:26:59;;;;;;;;;2.00;2.00;;;;;;;;5097152;27;45314;-71
2022/01/30 06:29:24;;;;;;;;;4.50;2.75;;;;;;;;5096448;27;45296;-71
2022/01/30 06:31:49;;;;;;;;;4.25;2.75;;;;;;;;5096737;27;46325;-72
2022/01/30 06:34:15;;;;;;;;;6.00;3.00;;;;;;;;5096523;27;45418;-71
2022/01/30 06:36:40;;;;;;;;;2.00;2.00;;;;;;;;5096837;27;45374;-71
2022/01/30 06:39:05;;;;;;;;;4.00;4.00;;;;;;;;5097277;27;45375;-71
2022/01/30 06:41:30;;;;;;;;;4.75;3.00;;;;;;;;5096951;27;45437;-71
2022/01/30 06:43:55;;;;;;;;;2.00;2.00;;;;;;;;5096235;27;45499;-71
2022/01/30 06:46:21;;;;;;;;;5.75;5.00;;;;;;;;5096510;27;45436;-72
2022/01/30 06:48:46;;;;;;;;;2.00;2.00;;;;;;;;5115373;27;45474;-72
2022/01/30 06:51:11;;;;;;;;;4.00;4.00;;;;;;;;5098452;27;47169;-72
2022/01/30 06:53:37;;;;;;;;;2.75;2.75;;;;;;;;5117472;27;45590;-72
2022/01/30 06:56:02;;;;;;;;;5.25;3.75;;;;;;;;5117031;27;45326;-72
2022/01/30 06:58:27;;;;;;;;;8.00;4.25;;;;;;;;5116147;27;45325;-72
2022/01/30 07:00:52;;;;;;;;;3.25;2.50;;;;;;;;5116542;27;46293;-71
2022/01/30 07:03:18;;;;;;;;;4.75;4.00;;;;;;;;5117075;27;45375;-71
2022/01/30 07:05:43;;;;;;;;;4.00;3.25;;;;;;;;5117019;27;45336;-71
2022/01/30 07:08:08;;;;;;;;;4.00;2.25;;;;;;;;5116121;27;45420;-71
2022/01/30 07:10:33;;;;;;;;;4.75;3.50;;;;;;;;5116133;27;45400;-71
2022/01/30 07:12:58;;;;;;;;;5.00;4.00;;;;;;;;5115905;27;45377;-71
2022/01/30 07:15:24;;;;;;;;;5.75;3.25;;;;;;;;5115725;27;45369;-71
2022/01/30 07:17:49;;;;;;;;;6.25;5.00;;;;;;;;5116639;27;45459;-71
2022/01/30 07:20:14;;;;;;;;;9.25;5.00;;;;;;;;5115831;27;46992;-71
2022/01/30 07:22:39;;;;;;;;;2.00;2.00;;;;;;;;5116281;27;45708;-71
2022/01/30 07:25:07;;;;;;;;;3.25;3.00;;;;;;;;5115962;27;45397;-71
2022/01/30 07:27:34;;;;;;;;;4.50;3.75;;;;;;;;5115793;27;45289;-71
2022/01/30 07:29:59;;;;;;;;;3.75;3.25;;;;;;;;5116626;27;46323;-71
2022/01/30 07:32:24;;;;;;;;;6.00;5.00;;;;;;;;5115702;27;45419;-72
2022/01/30 07:34:51;;;;;;;;;10.25;5.25;;;;;;;;5117068;27;45290;-70
2022/01/30 07:37:17;;;;;;;;;6.25;4.50;;;;;;;;5117487;27;45597;-69
2022/01/30 07:39:44;;;;;;;;;4.25;4.25;;;;;;;;5117383;27;45324;-71
2022/01/30 07:42:09;;;;;;;;;6.25;3.50;;;;;;;;5114747;27;45274;-72
2022/01/30 07:44:34;;;;;;;;;6.25;4.25;;;;;;;;5116423;27;45442;-72
2022/01/30 07:47:00;;;;;;;;;5.00;4.00;;;;;;;;5115636;27;45475;-72
2022/01/30 07:49:25;;;;;;;;;7.00;5.00;;;;;;;;5115201;27;45419;-71
2022/01/30 07:51:50;;;;;;;;;3.75;3.00;;;;;;;;5115820;27;45345;-71
2022/01/30 07:54:15;;;;;;;;;7.25;3.00;;;;;;;;5115879;27;45321;-71
2022/01/30 07:56:40;;;;;;;;;6.00;4.75;;;;;;;;5115817;27;45237;-71
2022/01/30 07:59:07;;;;;;;;;7.50;3.00;;;;;;;;5115463;27;45609;-71
2022/01/30 08:01:32;;;;;;;;;4.75;3.00;;;;;;;;5115028;27;45281;-70
2022/01/30 08:03:58;;;;;;;;;4.50;4.50;;;;;;;;5115988;27;45738;-71
2022/01/30 08:06:23;;;;;;;;;9.50;4.50;;;;;;;;5115327;27;45602;-71
2022/01/30 08:08:48;;;;;;;;;6.50;3.50;;;;;;;;5115774;27;46046;-70
2022/01/30 08:11:14;;;;;;;;;5.75;4.50;;;;;;;;5115055;27;45569;-72
2022/01/30 08:13:39;;;;;;;;;4.75;4.75;;;;;;;;5095245;27;45482;-71
2022/01/30 08:16:04;;;;;;;;;5.25;5.25;;;;;;;;5115434;27;45255;-70
2022/01/30 08:18:30;;;;;;;;;7.50;5.75;;;;;;;;5099184;27;45696;-71
2022/01/30 08:20:56;;;;;;;;;9.00;6.25;;;;;;;;5115793;27;45498;-71
2022/01/30 08:23:23;;;;;;;;;9.00;8.00;;;;;;;;5115275;27;45350;-71
2022/01/30 08:25:49;;;;;;;;;10.50;5.00;;;;;;;;5114544;27;45504;-72
2022/01/30 08:28:14;;;;;;;;;6.25;4.75;;;;;;;;5117019;27;45946;-71
2022/01/30 08:30:39;;;;;;;;;9.25;5.50;;;;;;;;5118240;27;45570;-72
2022/01/30 08:33:04;;;;;;;;;5.50;4.50;;;;;;;;5118782;27;45581;-72
2022/01/30 08:35:30;;;;;;;;;10.25;6.25;;;;;;;;5119003;27;45463;-71
2022/01/30 08:37:56;;;;;;;;;6.00;6.00;;;;;;;;5118051;27;46351;-71
2022/01/30 08:40:22;;;;;;;;;6.50;5.75;;;;;;;;5117885;27;45407;-72
2022/01/30 08:42:48;;;;;;;;;6.50;5.00;;;;;;;;5118403;27;46870;-72
2022/01/30 08:45:14;;;;;;;;;4.75;4.25;;;;;;;;5118227;27;45525;-71
2022/01/30 08:47:43;;;;;;;;;7.00;7.00;;;;;;;;5118310;27;47203;-72
2022/01/30 08:50:09;;;;;;;;;4.25;4.00;;;;;;;;5118491;27;45412;-72
2022/01/30 08:52:35;;;;;;;;;7.00;4.25;;;;;;;;5117939;27;45380;-72
2022/01/30 08:55:01;;;;;;;;;7.00;6.00;;;;;;;;5118326;27;45201;-72
2022/01/30 08:57:26;;;;;;;;;7.50;4.75;;;;;;;;5099764;27;46164;-71
2022/01/30 08:59:52;;;;;;;;;6.75;4.75;;;;;;;;5100292;27;45297;-72
2022/01/30 09:02:19;;;;;;;;;7.00;5.75;;;;;;;;5118396;27;45351;-72
2022/01/30 09:04:44;;;;;;;;;7.00;7.00;;;;;;;;5118268;27;45418;-71
2022/01/30 09:07:09;;;;;;;;;6.25;4.75;;;;;;;;5117598;27;45559;-72
2022/01/30 09:09:34;;;;;;;;;7.75;4.00;;;;;;;;5118317;27;45396;-72
2022/01/30 09:11:59;;;;;;;;;13.50;6.75;;;;;;;;5119013;27;45424;-71
2022/01/30 09:14:25;;;;;;;;;8.00;7.00;;;;;;;;5118378;27;45712;-72
2022/01/30 09:16:50;;;;;;;;;6.25;5.00;;;;;;;;5117921;27;45963;-73
2022/01/30 09:19:16;;;;;;;;;9.00;6.25;;;;;;;;5117734;27;45401;-71
2022/01/30 09:21:41;;;;;;;;;6.00;5.75;;;;;;;;5117842;27;45399;-72
2022/01/30 09:24:06;;;;;;;;;9.50;7.00;;;;;;;;5118492;27;45313;-72
2022/01/30 09:26:31;;;;;;;;;9.50;4.50;;;;;;;;5118228;27;46264;-73
2022/01/30 09:28:57;;;;;;;;;6.00;6.00;;;;;;;;5118231;27;45422;-74
2022/01/30 09:31:22;;;;;;;;;6.25;5.00;;;;;;;;5118073;27;45327;-74
2022/01/30 09:33:47;;;;;;;;;9.50;5.00;;;;;;;;5118108;27;45979;-74
2022/01/30 09:36:14;;;;;;;;;9.00;6.75;;;;;;;;5117527;27;45996;-74
2022/01/30 09:38:39;;;;;;;;;11.50;9.25;;;;;;;;5117159;27;45464;-74
2022/01/30 09:41:05;;;;;;;;;10.00;7.25;;;;;;;;5117202;27;45509;-74
2022/01/30 09:43:31;;;;;;;;;8.00;6.50;;;;;;;;5117561;27;45238;-74
2022/01/30 09:45:58;;;;;;;;;10.75;7.00;;;;;;;;5118025;27;45994;-73
2022/01/30 09:48:24;;;;;;;;;7.50;6.75;;;;;;;;5117005;27;45502;-73
2022/01/30 09:50:49;;;;;;;;;4.50;4.50;;;;;;;;5118087;27;45638;-73
2022/01/30 09:53:15;;;;;;;;;8.00;6.00;;;;;;;;5117512;27;45381;-73
2022/01/30 09:55:40;;;;;;;;;5.00;3.50;;;;;;;;5096024;27;45970;-74
2022/01/30 09:58:05;;;;;;;;;7.00;5.25;;;;;;;;5117275;27;45449;-73
2022/01/30 10:00:31;;;;;;;;;9.00;5.00;;;;;;;;5117794;27;45743;-74
2022/01/30 10:02:56;;;;;;;;;5.50;5.50;;;;;;;;5117701;27;45330;-73
2022/01/30 10:05:21;;;;;;;;;5.50;4.75;;;;;;;;5116570;27;46208;-74
2022/01/30 10:07:55;;;;;;;;;10.00;9.00;;;;;;;;5117064;27;45349;-73
2022/01/30 10:10:24;;;;;;;;;9.00;7.25;;;;;;;;5117253;27;45395;-74
2022/01/30 10:12:58;;;;;;;;;7.75;4.75;;;;;;;;5117206;27;45354;-74
2022/01/30 10:15:23;;;;;;;;;13.25;11.75;;;;;;;;5116783;27;47066;-73
2022/01/30 10:17:49;;;;;;;;;6.25;5.25;;;;;;;;5117462;27;45347;-74
2022/01/30 10:20:15;;;;;;;;;7.25;4.25;;;;;;;;5116631;27;45391;-73
2022/01/30 10:22:49;;;;;;;;;8.75;4.00;;;;;;;;5116774;27;45187;-73
2022/01/30 10:25:21;;;;;;;;;12.00;9.25;;;;;;;;5116813;27;46234;-73
2022/01/30 10:27:47;;;;;;;;;4.50;3.75;;;;;;;;5116765;27;45412;-73
2022/01/30 10:30:18;;;;;;;;;7.25;5.75;;;;;;;;5116272;27;45380;-74
2022/01/30 10:32:52;;;;;;;;;5.50;4.50;;;;;;;;5114918;27;45322;-72
2022/01/30 10:35:17;;;;;;;;;7.00;7.00;;;;;;;;5115791;27;46144;-73
2022/01/30 10:37:43;;;;;;;;;7.50;7.50;;;;;;;;5116074;27;45357;-72
2022/01/30 10:40:12;;;;;;;;;10.00;7.75;;;;;;;;5116551;27;45429;-74
2022/01/30 10:42:42;;;;;;;;;8.75;6.50;;;;;;;;5116524;27;45457;-73
2022/01/30 10:45:10;;;;;;;;;6.50;4.00;;;;;;;;5116476;27;46151;-72
2022/01/30 10:47:37;;;;;;;;;6.50;5.75;;;;;;;;5107473;27;45473;-72
2022/01/30 10:50:07;;;;;;;;;5.25;4.00;;;;;;;;5095568;27;45434;-74
2022/01/30 10:52:32;;;;;;;;;12.75;10.75;;;;;;;;5095901;27;45401;-73
2022/01/30 10:55:05;;;;;;;;;6.00;2.50;;;;;;;;5095922;27;46389;-74
2022/01/30 10:57:38;;;;;;;;;5.50;4.50;;;;;;;;5079676;27;45499;-74
2022/01/30 11:00:04;;;;;;;;;2.00;2.00;;;;;;;;5092479;27;45434;-74
2022/01/30 11:02:35;;;;;;;;;4.00;2.00;;;;;;;;5096265;27;45364;-72
2022/01/30 11:05:01;;;;;;;;;3.00;3.00;;;;;;;;5095216;27;47156;-73
2022/01/30 11:07:29;;;;;;;;;7.00;5.50;;;;;;;;5095802;27;45300;-73
2022/01/30 11:09:57;;;;;;;;;6.00;5.00;;;;;;;;5077712;27;45536;-72
2022/01/30 11:12:33;;;;;;;;;6.25;4.25;;;;;;;;5095460;27;45916;-73
2022/01/30 11:15:15;;;;;;;;;7.00;5.00;;;;;;;;5091437;27;46294;-73
2022/01/30 11:17:41;;;;;;;;;10.00;10.00;;;;;;;;5095236;27;45548;-74
2022/01/30 11:20:07;;;;;;;;;6.75;5.25;;;;;;;;5095480;27;45480;-74
2022/01/30 11:22:35;;;;;;;;;10.00;7.75;;;;;;;;5095426;27;45386;-73
2022/01/30 11:25:05;;;;;;;;;5.00;5.00;;;;;;;;5095608;27;46546;-73
2022/01/30 11:27:33;;;;;;;;;12.75;10.25;;;;;;;;5095265;27;45489;-73
2022/01/30 11:29:58;;;;;;;;;8.50;6.25;;;;;;;;5091366;27;45329;-71
2022/01/30 11:32:25;;;;;;;;;8.00;6.25;;;;;;;;5094269;27;45554;-71
2022/01/30 11:34:51;;;;;;;;;5.75;4.75;;;;;;;;5094832;27;46996;-74
2022/01/30 11:37:17;;;;;;;;;7.50;6.25;;;;;;;;5094984;27;45510;-74
2022/01/30 11:39:46;;;;;;;;;4.50;3.50;;;;;;;;5095040;27;45290;-74
2022/01/30 11:42:23;;;;;;;;;4.00;4.00;;;;;;;;5094851;27;45347;-74
2022/01/30 11:45:00;;;;;;;;;6.25;6.00;;;;;;;;5093473;27;46250;-73
2022/01/30 11:47:25;;;;;;;;;14.25;8.00;;;;;;;;5093965;27;45558;-73
2022/01/30 11:50:03;;;;;;;;;4.50;4.50;;;;;;;;5094527;27;45260;-73
2022/01/30 11:52:45;;;;;;;;;8.50;4.25;;;;;;;;5094521;27;45553;-74
2022/01/30 11:55:30;;;;;;;;;11.25;8.25;;;;;;;;5094755;27;47040;-71
2022/01/30 11:57:55;;;;;;;;;6.00;4.25;;;;;;;;5088913;27;45672;-75
2022/01/30 12:00:34;;;;;;;;;5.75;5.25;;;;;;;;5105507;27;45339;-74
2022/01/30 12:03:18;;;;;;;;;7.50;6.75;;;;;;;;5089414;27;45286;-76
2022/01/30 12:05:43;;;;;;;;;6.00;3.25;;;;;;;;5092420;27;45425;-77
2022/01/30 12:08:28;;;;;;;;;7.25;7.25;;;;;;;;5094072;27;45489;-76
2022/01/30 12:10:54;;;;;;;;;8.25;5.50;;;;;;;;5093668;27;45519;-73
2022/01/30 12:13:39;;;;;;;;;5.50;5.25;;;;;;;;5093280;27;45385;-72
2022/01/30 12:16:04;;;;;;;;;5.75;5.75;;;;;;;;5093022;27;45348;-72
2022/01/30 12:18:44;;;;;;;;;7.50;5.75;;;;;;;;5094134;27;45550;-73
2022/01/30 12:21:11;;;;;;;;;5.00;4.00;;;;;;;;5090589;27;45324;-73
2022/01/30 12:23:40;;;;;;;;;6.75;6.00;;;;;;;;5093952;27;45523;-73
2022/01/30 12:26:07;;;;;;;;;8.00;6.25;;;;;;;;5093271;27;46216;-78
2022/01/30 12:29:01;;;;;;;;;9.75;7.00;;;;;;;;5093644;27;45378;-73
2022/01/30 12:31:33;;;;;;;;;6.00;5.00;;;;;;;;5069156;27;45450;-73
2022/01/30 12:34:14;;;;;;;;;7.50;6.00;;;;;;;;5075616;27;45608;-73
2022/01/30 12:36:53;;;;;;;;;3.00;3.00;;;;;;;;5078432;27;46373;-73
2022/01/30 12:39:22;;;;;;;;;8.50;7.50;;;;;;;;5093343;27;45387;-73
2022/01/30 12:41:48;;;;;;;;;6.50;4.00;;;;;;;;5094570;27;45601;-73
2022/01/30 12:44:15;;;;;;;;;9.25;8.00;;;;;;;;5093351;27;45513;-73
2022/01/30 12:46:46;;;;;;;;;7.25;6.50;;;;;;;;5075407;27;47226;-73
2022/01/30 12:49:18;;;;;;;;;15.00;12.25;;;;;;;;5114589;27;45191;-73
2022/01/30 12:51:48;;;;;;;;;8.00;7.25;;;;;;;;5114147;27;45495;-74
2022/01/30 12:54:15;;;;;;;;;10.25;8.25;;;;;;;;5114235;27;45380;-74
2022/01/30 12:56:40;;;;;;;;;7.50;6.25;;;;;;;;5113878;27;46276;-74
2022/01/30 12:59:07;;;;;;;;;11.50;8.25;;;;;;;;5113274;27;45581;-73
2022/01/30 13:01:33;;;;;;;;;10.00;6.00;;;;;;;;5113797;27;45357;-74
2022/01/30 13:04:24;;;;;;;;;7.00;7.00;;;;;;;;5113755;27;45459;-74
2022/01/30 13:06:50;;;;;;;;;7.25;7.25;;;;;;;;5094741;27;46495;-75
2022/01/30 13:09:21;;;;;;;;;12.50;6.75;;;;;;;;5114051;27;45660;-73
2022/01/30 13:11:46;;;;;;;;;12.75;8.75;;;;;;;;5112757;27;45377;-75
2022/01/30 13:14:11;;;;;;;;;7.75;6.75;;;;;;;;5115691;27;45387;-73
2022/01/30 13:16:42;;;;;;;;;5.00;4.00;;;;;;;;5117214;27;47051;-74
2022/01/30 13:19:09;;;;;;;;;5.25;5.25;;;;;;;;5095233;27;45926;-74
2022/01/30 13:21:35;;;;;;;;;10.75;7.00;;;;;;;;5117020;27;45471;-74
2022/01/30 13:24:01;;;;;;;;;5.50;5.50;;;;;;;;5118110;27;45241;-75
2022/01/30 13:26:43;;;;;;;;;10.75;6.50;;;;;;;;5117300;27;45389;-74
2022/01/30 13:29:11;;;;;;;;;10.25;7.25;;;;;;;;5120766;27;45351;-74
2022/01/30 13:31:37;;;;;;;;;5.00;4.00;;;;;;;;5132095;27;45380;-74
2022/01/30 13:34:10;;;;;;;;;6.00;6.00;;;;;;;;5125856;27;45429;-74
2022/01/30 13:36:36;;;;;;;;;7.25;7.25;;;;;;;;5123758;27;46269;-75
2022/01/30 13:39:06;;;;;;;;;5.75;5.00;;;;;;;;5129636;27;45329;-74
2022/01/30 13:41:36;;;;;;;;;11.75;7.25;;;;;;;;5122371;27;45516;-74
2022/01/30 13:44:10;;;;;;;;;4.50;4.25;;;;;;;;5118237;27;45354;-74
2022/01/30 13:46:57;;;;;;;;;7.75;5.00;;;;;;;;5118536;27;46349;-72
2022/01/30 13:49:23;;;;;;;;;8.50;6.75;;;;;;;;5119907;27;45459;-76
2022/01/30 13:52:02;;;;;;;;;11.25;6.75;;;;;;;;5118173;27;45375;-75
2022/01/30 13:54:28;;;;;;;;;5.00;5.00;;;;;;;;5117676;27;45558;-74
2022/01/30 13:57:00;;;;;;;;;7.25;5.00;;;;;;;;5117425;27;45418;-74
2022/01/30 13:59:26;;;;;;;;;6.00;6.00;;;;;;;;5117634;27;45346;-74
2022/01/30 14:01:58;;;;;;;;;9.25;6.00;;;;;;;;5117217;27;45412;-74
2022/01/30 14:04:24;;;;;;;;;8.75;7.00;;;;;;;;5117114;27;45418;-73
2022/01/30 14:06:50;;;;;;;;;8.00;6.75;;;;;;;;5117286;27;45294;-73
2022/01/30 14:09:19;;;;;;;;;7.50;5.75;;;;;;;;5116800;27;45419;-76
2022/01/30 14:11:51;;;;;;;;;7.00;6.50;;;;;;;;5114779;27;45466;-76
2022/01/30 14:14:17;;;;;;;;;5.00;5.00;;;;;;;;5116751;27;45417;-75
2022/01/30 14:16:48;;;;;;;;;6.00;6.00;;;;;;;;5116208;27;46112;-74
2022/01/30 14:19:18;;;;;;;;;4.33;4.00;;;;;;;;5116343;27;45317;-76
2022/01/30 14:21:43;;;;;;;;;5.00;3.33;;;;;;;;5116121;27;45330;-75
2022/01/30 14:24:27;;;;;;;;;10.50;8.25;;;;;;;;5116719;27;45528;-74
2022/01/30 14:27:06;;;;;;;;;7.00;7.00;;;;;;;;5115580;27;46944;-74
2022/01/30 14:29:31;;;;;;;;;6.00;6.00;;;;;;;;5097823;27;45240;-75
2022/01/30 14:31:58;;;;;;;;;7.00;7.00;;;;;;;;5117028;27;45527;-76
2022/01/30 14:34:24;;;;;;;;;3.00;3.00;;;;;;;;5116738;27;45302;-78
2022/01/30 14:36:50;;;;;;;;;7.67;7.67;;;;;;;;5115533;27;45964;-74
2022/01/30 14:39:15;;;;;;;;;7.00;6.00;;;;;;;;5116114;27;45563;-76
2022/01/30 14:41:40;;;;;;;;;13.33;7.33;;;;;;;;5116116;27;45497;-73
2022/01/30 14:44:06;;;;;;;;;4.67;4.67;;;;;;;;5116063;27;45433;-74
2022/01/30 14:46:31;;;;;;;;;3.00;3.00;;;;;;;;5115367;27;45811;-75
2022/01/30 14:48:56;;;;;;;;;7.00;5.00;;;;;;;;5115301;27;45496;-74
2022/01/30 14:51:21;;;;;;;;;5.67;4.67;;;;;;;;5115847;27;45390;-75
2022/01/30 14:53:47;;;;;;;;;5.33;5.00;;;;;;;;5116547;27;45464;-74
2022/01/30 14:56:12;;;;;;;;;5.33;5.33;;;;;;;;5115014;27;45685;-74
2022/01/30 14:58:37;;;;;;;;;8.33;4.00;;;;;;;;5115493;27;45449;-75
2022/01/30 15:01:02;;;;;;;;;5.67;5.00;;;;;;;;5116081;27;45533;-76
2022/01/30 15:03:31;;;;;;;;;5.00;4.67;;;;;;;;5116484;27;45513;-77
2022/01/30 15:05:56;;;;;;;;;5.00;4.67;;;;;;;;5116254;27;45414;-77
2022/01/30 15:08:21;;;;;;;;;13.33;6.67;;;;;;;;5116104;27;45463;-74
2022/01/30 15:10:47;;;;;;;;;7.00;5.00;;;;;;;;5116144;27;45527;-76
2022/01/30 15:13:13;;;;;;;;;7.25;6.00;;;;;;;;5115965;27;45343;-74
2022/01/30 15:15:39;;;;;;;;;6.75;5.00;;;;;;;;5115121;27;46434;-74
2022/01/30 15:18:12;;;;;;;;;6.00;6.00;;;;;;;;5115580;27;45311;-76
2022/01/30 15:20:37;;;;;;;;;5.33;5.33;;;;;;;;5115676;27;45443;-75
2022/01/30 15:23:02;;;;;;;;;8.50;7.50;;;;;;;;5114183;27;45814;-74
2022/01/30 15:25:27;;;;;;;;;9.00;6.33;;;;;;;;5114376;27;47263;-73
2022/01/30 15:27:53;;;;;;;;;7.00;5.00;;;;;;;;5114676;27;45373;-74
2022/01/30 15:30:18;;;;;;;;;7.67;5.00;;;;;;;;5115009;27;45319;-74
2022/01/30 15:32:43;;;;;;;;;4.00;4.00;;;;;;;;5115744;27;45308;-73
2022/01/30 15:35:09;;;;;;;;;6.00;3.67;;;;;;;;5114444;27;45485;-75